createdAt,value
2023-03-26T00:01:17.115Z,94060.75
2023-03-26T00:03:47.375Z,94060.38
2023-03-26T00:06:15.530Z,94074.22
2023-03-26T00:08:44.933Z,94072.16
2023-03-26T00:11:15.197Z,94069.09
2023-03-26T00:13:43.649Z,94073.41
2023-03-26T00:16:15.436Z,94058.00
2023-03-26T00:18:42.502Z,94069.78
2023-03-26T00:21:12.713Z,94070.34
2023-03-26T00:23:39.913Z,94073.91
2023-03-26T00:26:10.468Z,94070.34
2023-03-26T00:28:40.774Z,94076.63
2023-03-26T00:31:09.314Z,94064.81
2023-03-26T00:33:38.856Z,94070.34
2023-03-26T00:36:09.730Z,94065.78
2023-03-26T00:38:39.170Z,94078.91
2023-03-26T00:41:17.762Z,94078.47
2023-03-26T00:43:49.029Z,94078.00
2023-03-26T00:46:17.485Z,94080.53
2023-03-26T00:48:45.749Z,94075.84
2023-03-26T00:51:17.532Z,94073.41
2023-03-26T00:53:46.188Z,94076.97
2023-03-26T00:56:12.960Z,94072.06
2023-03-26T00:58:40.058Z,94054.31
2023-03-26T01:01:09.619Z,94053.63
2023-03-26T01:03:38.341Z,94051.03
2023-03-26T01:06:14.349Z,94052.28
2023-03-26T01:08:44.945Z,94053.53
2023-03-26T01:11:16.463Z,94052.69
2023-03-26T01:13:47.585Z,94063.66
2023-03-26T01:16:33.722Z,94068.97
2023-03-26T01:19:00.525Z,94067.44
2023-03-26T01:21:30.263Z,94053.44
2023-03-26T01:24:05.424Z,94050.41
2023-03-26T01:26:43.819Z,94038.53
2023-03-26T01:29:20.985Z,94030.66
2023-03-26T01:31:57.172Z,94027.91
2023-03-26T01:34:30.602Z,94019.88
2023-03-26T01:37:13.213Z,94017.63
2023-03-26T01:40:07.267Z,94019.88
2023-03-26T01:42:43.593Z,94006.88
2023-03-26T01:45:17.617Z,94006.19
2023-03-26T01:47:45.564Z,94008.13
2023-03-26T01:50:12.131Z,93990.66
2023-03-26T01:52:39.252Z,93993.16
2023-03-26T01:55:11.512Z,93988.16
2023-03-26T01:57:55.023Z,93978.06
2023-03-26T02:00:27.637Z,93966.66
2023-03-26T02:03:46.887Z,93952.63
2023-03-26T02:06:19.559Z,93956.59
2023-03-26T02:08:54.231Z,93953.97
2023-03-26T02:11:21.585Z,93951.75
2023-03-26T02:13:51.726Z,93950.25
2023-03-26T02:16:20.674Z,93948.44
2023-03-26T02:18:51.214Z,93943.81
2023-03-26T02:21:21.912Z,93939.38
2023-03-26T02:23:50.667Z,93927.94
2023-03-26T02:26:19.766Z,93928.88
2023-03-26T02:28:46.403Z,93921.66
2023-03-26T02:31:13.797Z,93909.22
2023-03-26T02:33:40.707Z,93918.00
2023-03-26T02:36:08.377Z,93909.66
2023-03-26T02:38:35.569Z,93902.47
2023-03-26T02:41:02.748Z,93895.72
2023-03-26T02:43:29.264Z,93885.00
2023-03-26T02:45:56.363Z,93888.41
2023-03-26T02:48:23.112Z,93879.97
2023-03-26T02:50:54.021Z,93875.53
2023-03-26T02:53:30.152Z,93869.00
2023-03-26T02:56:00.664Z,93868.00
2023-03-26T02:58:30.303Z,93871.06
2023-03-26T03:00:56.890Z,93863.44
2023-03-26T03:03:27.825Z,93860.09
2023-03-26T03:05:55.839Z,93853.13
2023-03-26T03:08:26.486Z,93846.28
2023-03-26T03:11:01.431Z,93844.44
2023-03-26T03:13:28.481Z,93843.19
2023-03-26T03:15:55.205Z,93838.16
2023-03-26T03:18:22.347Z,93843.31
2023-03-26T03:20:49.742Z,93837.13
2023-03-26T03:23:16.145Z,93826.81
2023-03-26T03:25:43.005Z,93818.25
2023-03-26T03:28:09.502Z,93817.53
2023-03-26T03:30:36.162Z,93814.47
2023-03-26T03:33:03.271Z,93806.34
2023-03-26T03:35:30.516Z,93808.81
2023-03-26T03:37:57.897Z,93794.66
2023-03-26T03:40:24.553Z,93794.19
2023-03-26T03:42:51.461Z,93787.66
2023-03-26T03:45:18.634Z,93775.50
2023-03-26T03:47:45.517Z,93763.78
2023-03-26T03:50:11.982Z,93759.91
2023-03-26T03:52:38.371Z,93753.78
2023-03-26T03:55:05.654Z,93757.66
2023-03-26T03:57:33.398Z,93761.81
2023-03-26T03:59:59.770Z,93772.38
2023-03-26T04:02:30.639Z,93762.00
2023-03-26T04:05:00.167Z,93768.16
2023-03-26T04:07:31.410Z,93765.78
2023-03-26T04:09:59.960Z,93769.75
2023-03-26T04:12:30.927Z,93768.66
2023-03-26T04:14:58.951Z,93755.34
2023-03-26T04:17:25.539Z,93740.19
2023-03-26T04:19:55.326Z,93746.50
2023-03-26T04:22:22.330Z,93740.56
2023-03-26T04:24:50.084Z,93745.19
2023-03-26T04:27:25.872Z,93737.59
2023-03-26T04:29:52.272Z,93754.94
2023-03-26T04:32:30.207Z,93748.09
2023-03-26T04:35:00.577Z,93743.72
2023-03-26T04:37:34.749Z,93733.91
2023-03-26T04:40:09.482Z,93737.59
2023-03-26T04:42:46.596Z,93730.16
2023-03-26T04:45:22.690Z,93731.41
2023-03-26T04:47:50.820Z,93727.63
2023-03-26T04:50:17.364Z,93720.78
2023-03-26T04:52:45.153Z,93728.84
2023-03-26T04:55:57.685Z,93755.38
2023-03-26T04:58:30.075Z,93731.84
2023-03-26T05:00:57.738Z,93723.53
2023-03-26T05:03:25.601Z,93709.22
2023-03-26T05:05:52.067Z,93697.69
2023-03-26T05:08:19.114Z,93688.09
2023-03-26T05:10:45.440Z,93681.91
2023-03-26T05:13:11.929Z,93682.84
2023-03-26T05:15:38.642Z,93680.22
2023-03-26T05:18:05.101Z,93676.31
2023-03-26T05:20:31.703Z,93671.84
2023-03-26T05:22:58.574Z,93669.31
2023-03-26T05:25:25.051Z,93667.06
2023-03-26T05:27:52.020Z,93677.03
2023-03-26T05:30:20.983Z,93687.44
2023-03-26T05:32:49.408Z,93671.22
2023-03-26T05:35:19.515Z,93676.31
2023-03-26T05:37:47.349Z,93674.88
2023-03-26T05:40:16.718Z,93678.63
2023-03-26T05:42:43.644Z,93668.66
2023-03-26T05:45:12.337Z,93659.81
2023-03-26T05:47:39.013Z,93658.53
2023-03-26T05:50:07.802Z,93647.94
2023-03-26T05:52:34.480Z,93631.50
2023-03-26T05:55:00.973Z,93633.41
2023-03-26T05:57:30.594Z,93628.16
2023-03-26T05:59:56.921Z,93628.25
2023-03-26T06:02:23.678Z,93630.41
2023-03-26T06:04:51.472Z,93617.31
2023-03-26T06:07:19.615Z,93609.78
2023-03-26T06:09:46.351Z,93605.78
2023-03-26T06:12:16.347Z,93597.41
2023-03-26T06:14:42.853Z,93616.34
2023-03-26T06:17:10.060Z,93616.03
2023-03-26T06:19:37.111Z,93610.81
2023-03-26T06:22:04.257Z,93596.88
2023-03-26T06:24:30.801Z,93596.03
2023-03-26T06:26:57.433Z,93593.84
2023-03-26T06:29:23.760Z,93595.44
2023-03-26T06:31:50.565Z,93605.66
2023-03-26T06:34:17.289Z,93604.06
2023-03-26T06:36:43.616Z,93601.47
2023-03-26T06:39:10.055Z,93597.81
2023-03-26T06:41:36.740Z,93592.22
2023-03-26T06:44:03.124Z,93598.00
2023-03-26T06:46:29.487Z,93589.31
2023-03-26T06:48:56.300Z,93580.69
2023-03-26T06:51:22.705Z,93582.84
2023-03-26T06:53:49.013Z,93583.31
2023-03-26T06:56:15.989Z,93563.06
2023-03-26T06:58:42.339Z,93560.72
2023-03-26T07:01:08.790Z,93548.13
2023-03-26T07:03:35.749Z,93527.13
2023-03-26T07:06:02.161Z,93521.59
2023-03-26T07:08:28.794Z,93505.59
2023-03-26T07:10:55.306Z,93511.22
2023-03-26T07:13:22.165Z,93509.44
2023-03-26T07:15:49.265Z,93506.81
2023-03-26T07:18:15.774Z,93497.38
2023-03-26T07:20:44.842Z,93487.13
2023-03-26T07:23:12.029Z,93480.88
2023-03-26T07:25:39.253Z,93477.13
2023-03-26T07:28:31.644Z,93485.88
2023-03-26T07:31:15.697Z,93474.31
2023-03-26T07:33:54.865Z,93449.94
2023-03-26T07:36:28.521Z,93448.69
2023-03-26T07:39:19.192Z,93437.09
2023-03-26T07:41:51.054Z,93430.81
2023-03-26T07:44:42.959Z,93415.09
2023-03-26T07:47:33.630Z,93406.84
2023-03-26T07:50:00.772Z,93405.59
2023-03-26T07:52:27.475Z,93400.56
2023-03-26T07:54:54.418Z,93403.75
2023-03-26T07:57:45.733Z,93403.91
2023-03-26T08:00:22.003Z,93382.31
2023-03-26T08:03:13.842Z,93376.06
2023-03-26T08:06:01.797Z,93377.09
2023-03-26T08:08:52.351Z,93362.75
2023-03-26T08:11:53.390Z,93367.41
2023-03-26T08:14:25.829Z,93362.94
2023-03-26T08:17:14.510Z,93357.97
2023-03-26T08:19:46.226Z,93354.28
2023-03-26T08:22:27.081Z,93365.06
2023-03-26T08:25:02.705Z,93359.34
2023-03-26T08:27:38.261Z,93339.66
2023-03-26T08:30:14.855Z,93341.47
2023-03-26T08:32:42.168Z,93334.31
2023-03-26T08:35:13.288Z,93340.88
2023-03-26T08:37:39.611Z,93350.34
2023-03-26T08:40:07.068Z,93358.00
2023-03-26T08:42:52.114Z,93361.41
2023-03-26T08:45:27.917Z,93372.38
2023-03-26T08:48:06.424Z,93384.72
2023-03-26T08:51:11.145Z,93400.69
2023-03-26T08:54:09.547Z,93408.38
2023-03-26T08:56:51.749Z,93423.72
2023-03-26T08:59:23.891Z,93435.31
2023-03-26T09:02:12.882Z,93430.47
2023-03-26T09:04:44.908Z,93431.63
2023-03-26T09:07:48.620Z,93418.97
2023-03-26T09:10:43.276Z,93413.34
2023-03-26T09:13:09.921Z,93409.13
2023-03-26T09:16:06.248Z,93383.97
2023-03-26T09:19:07.105Z,93400.97
2023-03-26T09:21:54.600Z,93383.91
2023-03-26T09:24:33.189Z,93373.44
2023-03-26T09:27:07.655Z,93365.34
2023-03-26T09:30:01.695Z,93366.69
2023-03-26T09:32:39.956Z,93382.91
2023-03-26T09:35:14.070Z,93393.56
2023-03-26T09:38:00.213Z,93389.59
2023-03-26T09:40:57.161Z,93394.91
2023-03-26T09:44:08.144Z,93380.97
2023-03-26T09:46:50.142Z,93392.81
2023-03-26T09:49:22.768Z,93402.47
2023-03-26T09:52:21.740Z,93416.75
2023-03-26T09:55:23.272Z,93415.88
2023-03-26T09:58:02.451Z,93409.63
2023-03-26T10:00:41.419Z,93402.91
2023-03-26T10:03:26.997Z,93387.19
2023-03-26T10:05:59.687Z,93372.16
2023-03-26T10:08:32.449Z,93340.78
2023-03-26T10:11:17.494Z,93321.25
2023-03-26T10:14:25.266Z,93268.84
2023-03-26T10:17:28.700Z,93259.66
2023-03-26T10:20:09.309Z,93216.97
2023-03-26T10:22:53.446Z,93171.50
2023-03-26T10:25:41.948Z,93135.34
2023-03-26T10:28:23.340Z,93136.91
2023-03-26T10:31:25.610Z,93117.38
2023-03-26T10:33:59.463Z,93090.44
2023-03-26T10:36:36.657Z,93081.50
2023-03-26T10:39:37.722Z,93104.56
2023-03-26T10:42:23.624Z,93087.13
2023-03-26T10:45:24.856Z,93072.78
2023-03-26T10:48:26.995Z,93086.94
2023-03-26T10:51:13.492Z,93077.34
2023-03-26T10:54:11.129Z,93128.47
2023-03-26T10:56:49.730Z,93152.47
2023-03-26T10:59:17.661Z,93193.91
2023-03-26T11:01:53.747Z,93210.47
2023-03-26T11:04:58.018Z,93176.81
2023-03-26T11:07:46.722Z,93220.94
2023-03-26T11:10:40.971Z,93235.09
2023-03-26T11:13:33.294Z,93255.47
2023-03-26T11:16:07.219Z,93278.19
2023-03-26T11:18:47.648Z,93291.34
2023-03-26T11:21:26.095Z,93337.84
2023-03-26T11:24:17.919Z,93364.34
2023-03-26T11:27:14.854Z,93355.91
2023-03-26T11:29:45.560Z,93344.38
2023-03-26T11:32:26.057Z,93340.63
2023-03-26T11:35:02.622Z,93324.16
2023-03-26T11:37:58.965Z,93260.97
2023-03-26T11:40:30.009Z,93267.91
2023-03-26T11:43:01.872Z,93274.25
2023-03-26T11:45:42.307Z,93262.63
2023-03-26T11:48:17.934Z,93268.91
2023-03-26T11:50:48.316Z,93269.16
2023-03-26T11:53:20.347Z,93246.19
2023-03-26T11:56:16.367Z,93260.16
2023-03-26T11:58:53.361Z,93232.72
2023-03-26T12:01:30.685Z,93266.81
2023-03-26T12:04:13.998Z,93271.72
2023-03-26T12:06:52.593Z,93275.25
2023-03-26T12:09:20.408Z,93310.09
2023-03-26T12:11:49.626Z,93298.50
2023-03-26T12:14:23.232Z,93304.16
2023-03-26T12:17:08.180Z,93294.53
2023-03-26T12:19:42.413Z,93262.59
2023-03-26T12:22:29.947Z,93261.19
2023-03-26T12:25:09.893Z,93289.22
2023-03-26T12:27:37.903Z,93352.81
2023-03-26T12:30:23.434Z,93408.53
2023-03-26T12:32:53.060Z,93403.72
2023-03-26T12:35:27.038Z,93426.19
2023-03-26T12:37:56.136Z,93420.47
2023-03-26T12:40:35.854Z,93409.03
2023-03-26T12:44:47.435Z,93417.66
2023-03-26T12:47:56.140Z,93407.38
2023-03-26T12:48:45.606Z,93394.72
2023-03-26T12:51:26.262Z,93371.31
2023-03-26T12:54:13.934Z,93384.09
2023-03-26T12:57:12.264Z,93357.69
2023-03-26T13:00:21.384Z,93365.31
2023-03-26T13:03:10.307Z,93389.34
2023-03-26T13:06:08.549Z,93473.25
2023-03-26T13:08:39.417Z,93496.91
2023-03-26T13:11:30.404Z,93544.47
2023-03-26T13:14:25.480Z,93562.03
2023-03-26T13:17:10.601Z,93595.97
2023-03-26T13:19:43.855Z,93655.75
2023-03-26T13:22:10.134Z,93657.16
2023-03-26T13:25:00.156Z,93693.09
2023-03-26T13:27:44.674Z,93725.34
2023-03-26T13:30:28.140Z,93792.38
2023-03-26T13:33:04.787Z,93846.59
2023-03-26T13:35:47.207Z,93933.91
2023-03-26T13:38:20.800Z,94002.25
2023-03-26T13:41:02.461Z,94058.94
2023-03-26T13:43:36.408Z,94126.53
2023-03-26T13:46:08.567Z,94174.13
2023-03-26T13:48:47.614Z,94203.13
2023-03-26T13:51:45.557Z,94217.53
2023-03-26T13:54:31.051Z,94251.06
2023-03-26T13:57:31.723Z,94247.03
2023-03-26T14:00:12.841Z,94239.88
2023-03-26T14:02:41.403Z,94276.81
2023-03-26T14:05:22.234Z,94301.56
2023-03-26T14:07:52.696Z,94334.59
2023-03-26T14:10:34.353Z,94336.16
2023-03-26T14:13:04.531Z,94333.47
2023-03-26T14:15:36.632Z,94337.16
2023-03-26T14:18:25.279Z,94348.94
2023-03-26T14:21:10.473Z,94343.03
2023-03-26T14:23:49.277Z,94332.34
2023-03-26T14:26:33.966Z,94347.28
2023-03-26T14:29:12.207Z,94364.38
2023-03-26T14:31:41.588Z,94367.03
2023-03-26T14:34:45.862Z,94364.94
2023-03-26T14:37:43.422Z,94348.94
2023-03-26T14:41:01.786Z,94317.56
2023-03-26T14:43:43.227Z,94339.94
2023-03-26T14:46:35.088Z,94354.00
2023-03-26T14:49:28.929Z,94340.47
2023-03-26T14:52:02.276Z,94186.19
2023-03-26T14:54:33.517Z,94088.94
2023-03-26T14:57:12.967Z,94023.06
2023-03-26T14:59:54.528Z,94086.13
2023-03-26T15:02:42.568Z,94133.88
2023-03-26T15:05:27.722Z,94221.69
2023-03-26T15:08:19.254Z,94251.47
2023-03-26T15:11:10.412Z,94271.03
2023-03-26T15:14:08.073Z,94300.88
2023-03-26T15:16:59.104Z,94296.22
2023-03-26T15:19:38.217Z,94286.66
2023-03-26T15:22:37.745Z,94293.88
2023-03-26T15:25:25.630Z,94281.38
2023-03-26T15:27:58.167Z,94306.41
2023-03-26T15:30:34.739Z,94287.44
2023-03-26T15:33:44.127Z,94300.25
2023-03-26T15:36:41.847Z,94302.66
2023-03-26T15:39:17.952Z,94302.41
2023-03-26T15:42:06.474Z,94304.50
2023-03-26T15:44:47.203Z,94303.44
2023-03-26T15:47:48.356Z,94305.75
2023-03-26T15:50:35.850Z,94285.59
2023-03-26T15:53:23.402Z,94305.81
2023-03-26T15:56:03.664Z,94323.09
2023-03-26T15:58:55.126Z,94320.19
2023-03-26T16:01:28.438Z,94331.88
2023-03-26T16:04:09.042Z,94322.06
2023-03-26T16:06:48.099Z,94303.72
2023-03-26T16:09:32.595Z,94285.38
2023-03-26T16:12:23.650Z,94276.84
2023-03-26T16:15:23.772Z,94302.53
2023-03-26T16:18:09.604Z,94302.53
2023-03-26T16:20:50.861Z,94265.00
2023-03-26T16:23:55.377Z,94210.41
2023-03-26T16:26:54.544Z,94169.50
2023-03-26T16:29:27.394Z,94115.53
2023-03-26T16:32:16.472Z,94090.63
2023-03-26T16:34:48.971Z,94067.81
2023-03-26T16:37:36.934Z,94051.88
2023-03-26T16:40:22.657Z,94029.03
2023-03-26T16:42:51.447Z,94009.91
2023-03-26T16:45:29.649Z,93988.06
2023-03-26T16:48:05.556Z,93972.75
2023-03-26T16:50:48.851Z,93959.00
2023-03-26T16:53:29.962Z,93940.72
2023-03-26T16:56:02.490Z,93919.81
2023-03-26T16:58:34.472Z,93909.22
2023-03-26T17:01:42.760Z,93894.38
2023-03-26T17:04:23.575Z,93859.88
2023-03-26T17:07:13.938Z,93828.75
2023-03-26T17:09:59.230Z,93765.44
2023-03-26T17:12:36.975Z,93724.03
2023-03-26T17:15:18.748Z,93679.78
2023-03-26T17:18:13.923Z,93612.09
2023-03-26T17:21:04.884Z,93593.34
2023-03-26T17:23:58.017Z,93563.16
2023-03-26T17:26:29.676Z,93560.25
2023-03-26T17:29:20.965Z,93536.22
2023-03-26T17:32:00.419Z,93534.31
2023-03-26T17:34:39.064Z,93544.75
2023-03-26T17:37:48.308Z,93544.72
2023-03-26T17:40:49.089Z,93554.09
2023-03-26T17:43:38.021Z,93547.44
2023-03-26T17:46:26.766Z,93551.59
2023-03-26T17:49:13.324Z,93542.72
2023-03-26T17:51:52.924Z,93555.38
2023-03-26T17:54:22.043Z,93559.13
2023-03-26T17:56:51.192Z,93566.22
2023-03-26T17:59:23.687Z,93564.59
2023-03-26T18:02:00.816Z,93577.41
2023-03-26T18:04:38.140Z,93592.25
2023-03-26T18:07:11.813Z,93596.66
2023-03-26T18:10:33.460Z,93595.41
2023-03-26T18:13:28.776Z,93600.31
2023-03-26T18:16:13.079Z,93608.88
2023-03-26T18:18:45.460Z,93621.47
2023-03-26T18:21:21.711Z,93625.16
2023-03-26T18:23:50.531Z,93632.53
2023-03-26T18:26:22.850Z,93627.03
2023-03-26T18:29:08.057Z,93633.03
2023-03-26T18:31:34.862Z,93653.00
2023-03-26T18:34:11.573Z,93645.59
2023-03-26T18:36:39.155Z,93647.75
2023-03-26T18:39:12.497Z,93650.81
2023-03-26T18:41:42.215Z,93656.63
2023-03-26T18:44:15.611Z,93661.31
2023-03-26T18:46:43.552Z,93663.88
2023-03-26T18:49:16.972Z,93664.66
2023-03-26T18:51:56.166Z,93654.16
2023-03-26T18:54:24.129Z,93652.78
2023-03-26T18:56:52.619Z,93642.34
2023-03-26T18:59:31.811Z,93646.19
2023-03-26T19:02:13.661Z,93643.09
2023-03-26T19:04:46.164Z,93646.16
2023-03-26T19:07:16.987Z,93641.19
2023-03-26T19:09:44.082Z,93640.09
2023-03-26T19:12:28.687Z,93632.19
2023-03-26T19:14:56.279Z,93628.03
2023-03-26T19:17:26.477Z,93622.50
2023-03-26T19:19:55.115Z,93609.81
2023-03-26T19:22:25.559Z,93612.63
2023-03-26T19:25:01.103Z,93600.56
2023-03-26T19:27:27.901Z,93594.91
2023-03-26T19:29:54.686Z,93597.22
2023-03-26T19:32:29.743Z,93599.53
2023-03-26T19:34:59.807Z,93592.53
2023-03-26T19:37:31.885Z,93596.66
2023-03-26T19:40:14.031Z,93602.25
2023-03-26T19:42:44.922Z,93602.00
2023-03-26T19:45:18.497Z,93600.53
2023-03-26T19:47:50.503Z,93603.38
2023-03-26T19:50:27.585Z,93608.91
2023-03-26T19:53:22.293Z,93596.19
2023-03-26T19:55:59.704Z,93594.91
2023-03-26T19:58:27.110Z,93589.38
2023-03-26T20:00:55.957Z,93584.38
2023-03-26T20:03:28.426Z,93581.38
2023-03-26T20:05:55.138Z,93586.31
2023-03-26T20:08:26.808Z,93574.75
2023-03-26T20:10:55.825Z,93569.72
2023-03-26T20:13:22.542Z,93573.16
2023-03-26T20:16:05.557Z,93578.53
2023-03-26T20:18:34.024Z,93579.03
2023-03-26T20:21:00.825Z,93577.06
2023-03-26T20:23:28.832Z,93582.22
2023-03-26T20:25:55.555Z,93577.97
2023-03-26T20:28:22.594Z,93583.25
2023-03-26T20:30:50.049Z,93588.22
2023-03-26T20:33:27.367Z,93592.84
2023-03-26T20:35:55.339Z,93593.56
2023-03-26T20:38:32.932Z,93591.88
2023-03-26T20:41:06.544Z,93583.03
2023-03-26T20:43:32.861Z,93585.59
2023-03-26T20:45:59.644Z,93582.41
2023-03-26T20:48:28.702Z,93575.97
2023-03-26T20:50:56.951Z,93561.50
2023-03-26T20:53:23.682Z,93564.13
2023-03-26T20:55:51.711Z,93558.75
2023-03-26T20:58:31.856Z,93545.34
2023-03-26T21:01:00.882Z,93542.81
2023-03-26T21:03:27.417Z,93528.38
2023-03-26T21:05:53.779Z,93531.38
2023-03-26T21:08:21.181Z,93525.97
2023-03-26T21:10:47.889Z,93519.28
2023-03-26T21:13:37.213Z,93509.88
2023-03-26T21:16:04.282Z,93513.22
2023-03-26T21:18:31.122Z,93522.91
2023-03-26T21:21:34.720Z,93524.09
2023-03-26T21:24:21.840Z,93522.13
2023-03-26T21:27:17.959Z,93525.63
2023-03-26T21:29:44.562Z,93529.00
2023-03-26T21:32:12.184Z,93529.53
2023-03-26T21:34:47.891Z,93525.69
2023-03-26T21:37:22.613Z,93512.38
2023-03-26T21:39:49.516Z,93516.03
2023-03-26T21:42:16.778Z,93509.50
2023-03-26T21:44:43.420Z,93519.16
2023-03-26T21:47:10.332Z,93515.97
2023-03-26T21:49:38.407Z,93513.13
2023-03-26T21:52:05.137Z,93520.28
2023-03-26T21:54:33.080Z,93511.25
2023-03-26T21:57:21.353Z,93515.97
2023-03-26T22:00:15.367Z,93508.16
2023-03-26T22:03:05.237Z,93488.81
2023-03-26T22:06:07.355Z,93490.41
2023-03-26T22:08:38.516Z,93483.31
2023-03-26T22:11:06.437Z,93476.94
2023-03-26T22:13:36.236Z,93456.22
2023-03-26T22:16:02.848Z,93450.66
2023-03-26T22:18:29.989Z,93441.41
2023-03-26T22:20:58.276Z,93438.53
2023-03-26T22:23:24.846Z,93426.13
2023-03-26T22:25:51.772Z,93420.56
2023-03-26T22:28:19.171Z,93411.63
2023-03-26T22:30:46.220Z,93404.28
2023-03-26T22:33:13.090Z,93399.03
2023-03-26T22:35:41.590Z,93383.22
2023-03-26T22:38:09.517Z,93381.34
2023-03-26T22:40:36.486Z,93367.13
2023-03-26T22:43:03.005Z,93372.63
2023-03-26T22:45:29.998Z,93370.75
2023-03-26T22:48:03.073Z,93365.69
2023-03-26T22:50:29.700Z,93348.63
2023-03-26T22:52:56.219Z,93343.84
2023-03-26T22:55:28.517Z,93335.41
2023-03-26T22:57:56.699Z,93334.28
2023-03-26T23:00:23.539Z,93331.91
2023-03-26T23:02:50.049Z,93339.72
2023-03-26T23:05:20.187Z,93290.06
2023-03-26T23:07:48.714Z,93269.59
2023-03-26T23:10:15.413Z,93271.91
2023-03-26T23:12:41.756Z,93271.38
2023-03-26T23:15:09.510Z,93266.06
2023-03-26T23:17:37.987Z,93268.69
2023-03-26T23:20:11.950Z,93258.09
2023-03-26T23:22:38.652Z,93260.19
2023-03-26T23:25:05.479Z,93256.28
2023-03-26T23:27:32.824Z,93247.31
2023-03-26T23:29:59.666Z,93252.56
2023-03-26T23:32:25.975Z,93251.75
2023-03-26T23:34:52.599Z,93242.78
2023-03-26T23:37:23.479Z,93247.00
2023-03-26T23:39:50.811Z,93243.81
2023-03-26T23:42:17.454Z,93243.63
2023-03-26T23:44:57.172Z,93243.34
2023-03-26T23:47:23.913Z,93250.66
2023-03-26T23:49:50.467Z,93248.03
2023-03-26T23:52:17.157Z,93254.94
2023-03-26T23:54:44.476Z,93245.59
2023-03-26T23:57:11.235Z,93256.03
2023-03-26T23:59:38.556Z,93233.84
